createdAt,value
2018-12-26T00:01:07.556Z,68.40
2018-12-26T00:03:35.906Z,66.10
2018-12-26T00:06:04.137Z,68.47
2018-12-26T00:08:32.460Z,67.30
2018-12-26T00:11:00.710Z,67.07
2018-12-26T00:13:29.643Z,64.87
2018-12-26T00:15:59.582Z,65.57
2018-12-26T00:18:27.874Z,66.27
2018-12-26T00:20:56.130Z,66.57
2018-12-26T00:23:24.468Z,66.93
2018-12-26T00:25:52.819Z,65.83
2018-12-26T00:28:21.071Z,68.20
2018-12-26T00:30:49.317Z,69.77
2018-12-26T00:33:17.621Z,70.13
2018-12-26T00:38:33.442Z,68.62
2018-12-26T00:41:01.815Z,67.70
2018-12-26T00:43:30.097Z,70.37
2018-12-26T00:45:58.558Z,71.80
2018-12-26T00:48:26.871Z,69.13
2018-12-26T00:50:55.216Z,71.72
2018-12-26T00:53:23.546Z,70.35
2018-12-26T00:55:51.783Z,69.33
2018-12-26T00:58:20.204Z,69.83
2018-12-26T01:00:48.524Z,66.27
2018-12-26T01:03:16.791Z,67.00
2018-12-26T01:05:45.108Z,67.75
2018-12-26T01:08:13.423Z,67.77
2018-12-26T01:10:41.732Z,67.07
2018-12-26T01:13:10.115Z,69.25
2018-12-26T01:15:38.378Z,67.70
2018-12-26T01:20:48.970Z,66.40
2018-12-26T01:23:17.245Z,68.17
2018-12-26T01:25:45.620Z,65.60
2018-12-26T01:28:13.894Z,67.10
2018-12-26T01:30:42.168Z,64.27
2018-12-26T01:33:10.455Z,65.20
2018-12-26T01:35:38.712Z,65.07
2018-12-26T01:38:07.050Z,66.67
2018-12-26T01:40:35.366Z,66.63
2018-12-26T01:43:03.708Z,68.30
2018-12-26T01:45:31.922Z,66.97
2018-12-26T01:48:00.319Z,66.57
2018-12-26T01:50:28.702Z,65.30
2018-12-26T01:52:56.955Z,64.87
2018-12-26T01:55:25.229Z,65.00
2018-12-26T01:57:53.528Z,71.20
2018-12-26T02:00:21.779Z,66.30
2018-12-26T02:02:50.074Z,70.33
2018-12-26T02:05:18.331Z,68.87
2018-12-26T02:07:46.623Z,71.33
2018-12-26T02:10:14.925Z,70.40
2018-12-26T02:12:43.153Z,73.10
2018-12-26T02:15:11.461Z,71.60
2018-12-26T02:17:39.828Z,69.37
2018-12-26T02:20:08.108Z,72.30
2018-12-26T02:22:36.414Z,68.35
2018-12-26T02:25:04.687Z,68.28
2018-12-26T02:27:32.935Z,67.80
2018-12-26T02:30:01.204Z,71.90
2018-12-26T02:32:30.416Z,69.10
2018-12-26T02:37:46.864Z,68.20
2018-12-26T02:40:15.103Z,69.58
2018-12-26T02:42:43.488Z,67.30
2018-12-26T02:45:11.748Z,66.53
2018-12-26T02:53:09.140Z,68.35
2018-12-26T02:55:37.433Z,66.90
2018-12-26T02:58:05.695Z,67.45
2018-12-26T03:00:34.019Z,68.12
2018-12-26T03:03:02.355Z,68.22
2018-12-26T03:05:30.627Z,68.45
2018-12-26T03:07:58.892Z,73.05
2018-12-26T03:10:27.190Z,67.42
2018-12-26T03:12:55.573Z,69.82
2018-12-26T03:15:23.841Z,66.92
2018-12-26T03:17:52.119Z,66.77
2018-12-26T03:20:20.487Z,66.20
2018-12-26T03:22:48.867Z,66.70
2018-12-26T03:25:17.171Z,66.30
2018-12-26T03:27:45.520Z,69.83
2018-12-26T03:30:13.784Z,66.25
2018-12-26T03:32:42.114Z,68.85
2018-12-26T03:35:10.456Z,65.07
2018-12-26T03:37:38.784Z,69.05
2018-12-26T03:40:07.829Z,66.30
2018-12-26T03:42:36.138Z,65.50
2018-12-26T03:45:04.367Z,67.35
2018-12-26T03:47:32.744Z,68.27
2018-12-26T03:50:01.150Z,69.07
2018-12-26T03:52:29.540Z,66.60
2018-12-26T03:54:57.881Z,67.07
2018-12-26T03:57:26.160Z,68.90
2018-12-26T03:59:54.522Z,67.63
2018-12-26T04:02:22.839Z,65.60
2018-12-26T04:04:51.113Z,69.37
2018-12-26T04:07:19.373Z,65.83
2018-12-26T04:10:08.019Z,71.77
2018-12-26T04:12:36.368Z,70.13
2018-12-26T04:15:04.944Z,70.42
2018-12-26T04:17:33.289Z,69.72
2018-12-26T04:20:01.652Z,69.43
2018-12-26T04:22:29.918Z,69.50
2018-12-26T04:24:58.318Z,70.10
2018-12-26T04:27:26.567Z,69.10
2018-12-26T04:29:54.861Z,68.20
2018-12-26T04:32:23.245Z,69.10
2018-12-26T04:34:51.499Z,68.10
2018-12-26T04:37:19.799Z,66.80
2018-12-26T04:39:48.086Z,66.40
2018-12-26T04:42:16.612Z,67.37
2018-12-26T04:44:44.810Z,66.70
2018-12-26T04:47:13.101Z,69.10
2018-12-26T04:49:41.398Z,67.93
2018-12-26T04:52:09.648Z,68.40
2018-12-26T04:54:37.968Z,69.67
2018-12-26T04:57:06.194Z,68.50
2018-12-26T04:59:34.488Z,70.13
2018-12-26T05:02:02.743Z,70.77
2018-12-26T05:04:31.143Z,71.95
2018-12-26T05:06:59.412Z,70.47
2018-12-26T05:09:27.703Z,71.65
2018-12-26T05:11:56.076Z,70.23
2018-12-26T05:14:24.389Z,73.47
2018-12-26T05:16:52.633Z,70.27
2018-12-26T05:19:21.046Z,72.07
2018-12-26T05:21:50.876Z,71.27
2018-12-26T05:24:19.082Z,71.30
2018-12-26T05:26:47.351Z,70.57
2018-12-26T05:29:15.637Z,71.83
2018-12-26T05:31:43.902Z,71.47
2018-12-26T05:34:12.175Z,69.57
2018-12-26T05:36:40.482Z,67.90
2018-12-26T05:41:51.045Z,69.40
2018-12-26T05:44:19.426Z,70.90
2018-12-26T05:46:47.705Z,70.47
2018-12-26T05:49:16.098Z,67.40
2018-12-26T05:51:44.467Z,67.73
2018-12-26T05:54:12.725Z,69.70
2018-12-26T05:56:41.021Z,69.33
2018-12-26T05:59:09.268Z,68.50
2018-12-26T06:01:37.596Z,74.13
2018-12-26T06:04:05.938Z,69.20
2018-12-26T06:06:34.208Z,68.80
2018-12-26T06:09:02.521Z,69.97
2018-12-26T06:11:30.888Z,69.73
2018-12-26T06:13:59.136Z,67.83
2018-12-26T06:16:27.427Z,71.30
2018-12-26T06:18:55.816Z,73.90
2018-12-26T06:21:24.078Z,73.07
2018-12-26T06:23:54.762Z,73.70
2018-12-26T06:26:23.411Z,71.20
2018-12-26T06:28:51.666Z,69.07
2018-12-26T06:31:19.955Z,70.57
2018-12-26T06:33:48.211Z,69.50
2018-12-26T06:36:16.512Z,72.03
2018-12-26T06:38:44.820Z,70.63
2018-12-26T06:41:13.162Z,70.70
2018-12-26T06:43:41.725Z,72.80
2018-12-26T06:46:10.012Z,68.10
2018-12-26T06:48:38.293Z,70.07
2018-12-26T06:51:06.579Z,74.10
2018-12-26T06:53:34.836Z,72.97
2018-12-26T06:56:03.144Z,70.50
2018-12-26T06:58:31.397Z,70.50
2018-12-26T07:00:59.717Z,73.60
2018-12-26T07:03:27.943Z,71.83
2018-12-26T07:05:56.231Z,70.17
2018-12-26T07:08:24.737Z,67.30
2018-12-26T07:10:52.976Z,70.90
2018-12-26T07:13:21.256Z,69.33
2018-12-26T07:15:49.557Z,67.90
2018-12-26T07:18:17.815Z,70.13
2018-12-26T07:20:46.100Z,77.57
2018-12-26T07:23:14.460Z,71.17
2018-12-26T07:25:42.733Z,70.07
2018-12-26T07:28:11.040Z,70.67
2018-12-26T07:30:39.409Z,70.87
2018-12-26T07:33:07.773Z,71.83
2018-12-26T07:35:36.049Z,73.00
2018-12-26T07:40:46.700Z,71.17
2018-12-26T07:43:15.028Z,75.13
2018-12-26T07:45:43.284Z,72.70
2018-12-26T07:48:12.076Z,74.50
2018-12-26T07:50:40.401Z,80.00
2018-12-26T07:53:08.744Z,73.53
2018-12-26T07:55:37.038Z,72.50
2018-12-26T07:58:05.276Z,73.87
2018-12-26T08:00:33.580Z,73.67
2018-12-26T08:03:01.856Z,73.90
2018-12-26T08:05:30.214Z,70.00
2018-12-26T08:07:58.507Z,72.10
2018-12-26T08:10:26.783Z,71.73
2018-12-26T08:12:55.143Z,71.77
2018-12-26T08:15:23.449Z,73.70
2018-12-26T08:18:05.535Z,75.63
2018-12-26T08:20:33.887Z,73.20
2018-12-26T08:23:02.216Z,73.97
2018-12-26T08:25:30.449Z,76.13
2018-12-26T08:27:58.756Z,79.43
2018-12-26T08:30:27.120Z,80.33
2018-12-26T08:35:42.744Z,79.80
2018-12-26T08:38:11.128Z,82.30
2018-12-26T08:40:39.404Z,83.43
2018-12-26T08:43:07.647Z,78.03
2018-12-26T08:45:36.032Z,84.53
2018-12-26T08:48:04.333Z,84.80
2018-12-26T08:50:32.591Z,86.50
2018-12-26T08:53:00.849Z,90.10
2018-12-26T08:55:29.126Z,80.70
2018-12-26T09:00:39.199Z,79.57
2018-12-26T09:03:07.525Z,81.27
2018-12-26T09:05:35.761Z,89.10
2018-12-26T09:08:04.129Z,81.17
2018-12-26T09:10:32.436Z,79.07
2018-12-26T09:13:00.669Z,81.10
2018-12-26T09:15:28.952Z,80.40
2018-12-26T09:17:57.431Z,80.17
2018-12-26T09:20:25.830Z,85.87
2018-12-26T09:25:43.036Z,167.03
2018-12-26T09:28:11.451Z,114.23
2018-12-26T09:30:39.704Z,83.23
2018-12-26T09:33:07.992Z,83.00
2018-12-26T09:35:36.265Z,87.67
2018-12-26T09:38:04.640Z,85.67
2018-12-26T09:40:33.046Z,84.30
2018-12-26T09:43:01.500Z,84.67
2018-12-26T09:45:29.868Z,89.97
2018-12-26T09:47:58.165Z,82.57
2018-12-26T09:50:26.423Z,92.23
2018-12-26T09:52:57.353Z,85.13
2018-12-26T09:55:27.734Z,95.00
2018-12-26T09:57:56.977Z,86.37
2018-12-26T10:00:25.313Z,85.37
2018-12-26T10:02:53.584Z,92.30
2018-12-26T10:05:22.625Z,83.67
2018-12-26T10:07:50.938Z,91.70
2018-12-26T10:10:19.289Z,85.40
2018-12-26T10:15:34.926Z,89.70
2018-12-26T10:20:45.551Z,83.27
2018-12-26T10:23:14.066Z,88.47
2018-12-26T10:25:42.385Z,86.17
2018-12-26T10:28:10.776Z,86.23
2018-12-26T10:30:39.127Z,88.20
2018-12-26T10:33:07.400Z,87.37
2018-12-26T10:35:35.649Z,84.80
2018-12-26T10:38:04.057Z,89.20
2018-12-26T10:40:32.309Z,126.33
2018-12-26T10:43:00.700Z,108.63
2018-12-26T10:45:28.968Z,89.37
2018-12-26T10:47:57.266Z,93.27
2018-12-26T10:50:25.507Z,88.90
2018-12-26T10:52:53.769Z,86.13
2018-12-26T10:55:22.071Z,91.50
2018-12-26T10:57:50.521Z,91.83
2018-12-26T11:00:18.816Z,89.40
2018-12-26T11:02:47.236Z,97.77
2018-12-26T11:05:15.581Z,95.70
2018-12-26T11:10:26.265Z,83.53
2018-12-26T11:12:54.599Z,83.50
2018-12-26T11:15:23.001Z,93.50
2018-12-26T11:17:51.337Z,86.90
2018-12-26T11:20:19.689Z,98.87
2018-12-26T11:22:47.936Z,83.77
2018-12-26T11:25:16.256Z,90.00
2018-12-26T11:27:44.492Z,89.10
2018-12-26T11:30:12.787Z,89.73
2018-12-26T11:32:41.059Z,88.10
2018-12-26T11:35:09.345Z,91.57
2018-12-26T11:37:37.610Z,84.33
2018-12-26T11:40:07.238Z,85.10
2018-12-26T11:42:35.783Z,87.30
2018-12-26T11:48:11.723Z,80.57
2018-12-26T11:50:39.945Z,81.03
2018-12-26T11:53:08.225Z,82.07
2018-12-26T11:55:36.613Z,80.57
2018-12-26T11:58:05.003Z,89.27
2018-12-26T12:00:33.299Z,95.23
2018-12-26T12:03:01.613Z,81.80
2018-12-26T12:05:29.932Z,85.70
2018-12-26T12:07:58.196Z,82.43
2018-12-26T12:10:26.571Z,104.57
2018-12-26T12:12:54.943Z,87.73
2018-12-26T12:15:23.190Z,81.00
2018-12-26T12:17:51.482Z,80.93
2018-12-26T12:20:19.766Z,84.87
2018-12-26T12:22:48.023Z,84.50
2018-12-26T12:25:16.341Z,91.33
2018-12-26T12:27:44.736Z,88.97
2018-12-26T12:30:13.034Z,88.40
2018-12-26T12:32:41.363Z,90.80
2018-12-26T12:35:09.748Z,96.77
2018-12-26T12:37:38.064Z,85.47
2018-12-26T12:40:07.470Z,81.87
2018-12-26T12:42:35.796Z,90.40
2018-12-26T12:45:04.063Z,80.73
2018-12-26T12:47:32.360Z,86.30
2018-12-26T12:50:00.630Z,82.70
2018-12-26T12:52:28.966Z,82.33
2018-12-26T12:54:57.340Z,84.40
2018-12-26T12:57:25.657Z,82.57
2018-12-26T12:59:53.959Z,79.07
2018-12-26T13:02:22.193Z,90.37
2018-12-26T13:04:50.496Z,85.50
2018-12-26T13:07:18.761Z,82.47
2018-12-26T13:09:47.177Z,82.40
2018-12-26T13:12:15.520Z,81.50
2018-12-26T13:14:43.809Z,79.17
2018-12-26T13:19:54.498Z,82.33
2018-12-26T13:22:22.781Z,85.00
2018-12-26T13:24:51.038Z,86.17
2018-12-26T13:27:19.596Z,104.80
2018-12-26T13:29:53.763Z,86.67
2018-12-26T13:32:18.034Z,85.80
2018-12-26T13:34:46.305Z,83.97
2018-12-26T13:37:14.657Z,87.20
2018-12-26T13:39:42.937Z,80.10
2018-12-26T13:44:53.573Z,76.90
2018-12-26T13:47:21.941Z,83.90
2018-12-26T13:49:50.177Z,82.47
2018-12-26T13:52:18.471Z,80.80
2018-12-26T13:54:46.745Z,85.77
2018-12-26T13:57:15.014Z,86.90
2018-12-26T13:59:43.298Z,76.47
2018-12-26T14:02:11.645Z,77.07
2018-12-26T14:04:39.978Z,82.87
2018-12-26T14:07:08.232Z,83.20
2018-12-26T14:09:37.954Z,82.47
2018-12-26T14:12:07.651Z,83.07
2018-12-26T14:14:37.168Z,84.40
2018-12-26T14:19:49.730Z,83.50
2018-12-26T14:22:19.157Z,82.00
2018-12-26T14:25:07.374Z,88.80
2018-12-26T14:27:36.759Z,82.57
2018-12-26T14:30:11.133Z,85.43
2018-12-26T14:32:35.170Z,81.63
2018-12-26T14:35:03.507Z,71.13
2018-12-26T14:37:31.751Z,77.83
2018-12-26T14:40:00.043Z,89.47
2018-12-26T14:42:28.431Z,97.57
2018-12-26T14:44:56.737Z,81.37
2018-12-26T14:47:25.088Z,81.50
2018-12-26T14:49:53.421Z,79.70
2018-12-26T14:52:21.760Z,76.30
2018-12-26T14:54:50.125Z,76.77
2018-12-26T14:57:18.385Z,74.57
2018-12-26T14:59:46.697Z,75.07
2018-12-26T15:02:31.925Z,76.87
2018-12-26T15:04:46.502Z,74.90
2018-12-26T15:07:14.847Z,76.30
2018-12-26T15:09:43.318Z,75.53
2018-12-26T15:12:11.645Z,74.87
2018-12-26T15:14:40.021Z,72.60
2018-12-26T15:17:08.403Z,74.83
2018-12-26T15:19:36.806Z,71.93
2018-12-26T15:22:05.136Z,78.33
2018-12-26T15:24:33.476Z,72.83
2018-12-26T15:27:01.705Z,70.27
2018-12-26T15:32:12.657Z,70.20
2018-12-26T15:34:41.081Z,69.37
2018-12-26T15:37:09.329Z,69.20
2018-12-26T15:39:37.625Z,84.00
2018-12-26T15:42:05.969Z,78.77
2018-12-26T15:44:35.713Z,74.23
2018-12-26T15:47:23.800Z,75.10
2018-12-26T15:49:53.756Z,76.00
2018-12-26T15:52:23.687Z,73.70
2018-12-26T15:54:53.623Z,73.97
2018-12-26T15:57:23.110Z,82.07
2018-12-26T16:02:41.243Z,75.77
2018-12-26T16:05:10.929Z,75.10
2018-12-26T16:07:40.786Z,73.97
2018-12-26T16:10:10.812Z,72.37
2018-12-26T16:15:28.893Z,72.03
2018-12-26T16:17:58.521Z,73.80
2018-12-26T16:20:28.406Z,75.70
2018-12-26T16:22:58.181Z,78.17
2018-12-26T16:28:15.860Z,81.53
2018-12-26T16:33:29.412Z,80.03
2018-12-26T16:35:59.006Z,79.67
2018-12-26T16:38:28.595Z,78.53
2018-12-26T16:40:58.323Z,81.12
2018-12-26T16:43:28.264Z,81.30
2018-12-26T16:45:57.814Z,74.03
2018-12-26T16:48:27.224Z,74.57
2018-12-26T16:53:45.319Z,74.57
2018-12-26T16:56:15.084Z,73.57
2018-12-26T16:58:44.923Z,79.87
2018-12-26T17:01:14.982Z,76.17
2018-12-26T17:04:02.994Z,75.67
2018-12-26T17:09:21.022Z,74.77
2018-12-26T17:14:33.674Z,75.95
2018-12-26T17:17:03.951Z,73.57
2018-12-26T17:19:33.976Z,73.43
2018-12-26T17:22:03.565Z,77.20
2018-12-26T17:24:33.568Z,72.60
2018-12-26T17:27:04.260Z,79.50
2018-12-26T17:29:33.911Z,76.37
2018-12-26T17:32:03.675Z,73.33
2018-12-26T17:34:33.578Z,75.97
2018-12-26T17:37:03.586Z,74.83
2018-12-26T17:39:33.500Z,71.30
2018-12-26T17:42:03.462Z,74.80
2018-12-26T17:44:33.373Z,73.20
2018-12-26T17:47:03.452Z,77.30
2018-12-26T17:49:33.139Z,77.40
2018-12-26T17:55:06.949Z,75.65
2018-12-26T17:57:41.574Z,74.63
2018-12-26T18:00:29.625Z,76.22
2018-12-26T18:02:59.495Z,76.90
2018-12-26T18:05:29.372Z,80.40
2018-12-26T18:07:59.325Z,78.92
2018-12-26T18:10:28.899Z,78.65
2018-12-26T18:12:58.563Z,79.50
2018-12-26T18:15:28.561Z,198.13
2018-12-26T18:17:58.659Z,127.32
2018-12-26T18:20:28.453Z,108.63
2018-12-26T18:22:57.959Z,91.10
2018-12-26T18:25:29.336Z,86.53
2018-12-26T18:27:58.924Z,85.97
2018-12-26T18:30:28.547Z,85.32
2018-12-26T18:38:22.697Z,83.67
2018-12-26T18:40:50.959Z,82.20
2018-12-26T18:46:41.608Z,81.25
2018-12-26T18:49:09.691Z,82.47
2018-12-26T18:51:37.786Z,77.82
2018-12-26T18:54:05.772Z,81.70
2018-12-26T18:56:33.723Z,77.90
2018-12-26T18:59:01.717Z,75.67
2018-12-26T19:01:30.700Z,78.72
2018-12-26T19:06:41.499Z,75.28
2018-12-26T19:09:09.696Z,76.17
2018-12-26T19:11:37.817Z,81.85
2018-12-26T19:14:05.806Z,82.00
2018-12-26T19:16:33.894Z,81.08
2018-12-26T19:19:01.831Z,81.45
2018-12-26T19:21:29.819Z,85.07
2018-12-26T19:23:57.796Z,78.85
2018-12-26T19:26:25.903Z,75.42
2018-12-26T19:28:53.917Z,75.22
2018-12-26T19:31:21.870Z,78.67
2018-12-26T19:33:49.862Z,87.33
2018-12-26T19:36:17.835Z,82.80
2018-12-26T19:38:45.798Z,87.75
2018-12-26T19:41:13.766Z,81.63
2018-12-26T19:43:41.858Z,82.92
2018-12-26T19:46:09.889Z,86.55
2018-12-26T19:48:38.185Z,85.65
2018-12-26T19:51:06.201Z,80.00
2018-12-26T19:53:34.245Z,80.38
2018-12-26T19:56:02.471Z,77.45
2018-12-26T19:58:30.633Z,77.15
2018-12-26T20:00:58.569Z,82.97
2018-12-26T20:03:26.698Z,84.03
2018-12-26T20:05:54.761Z,82.17
2018-12-26T20:08:22.713Z,84.30
2018-12-26T20:10:50.659Z,82.33
2018-12-26T20:13:18.592Z,84.45
2018-12-26T20:15:46.589Z,94.32
2018-12-26T20:18:15.003Z,78.97
2018-12-26T20:20:43.058Z,73.80
2018-12-26T20:23:10.975Z,74.65
2018-12-26T20:25:38.982Z,77.82
2018-12-26T20:28:07.232Z,79.67
2018-12-26T20:30:35.334Z,74.90
2018-12-26T20:33:03.440Z,72.97
2018-12-26T20:35:31.444Z,80.20
2018-12-26T20:37:59.485Z,84.10
2018-12-26T20:40:27.534Z,87.67
2018-12-26T20:42:55.450Z,88.05
2018-12-26T20:45:23.488Z,83.27
2018-12-26T20:47:51.416Z,76.97
2018-12-26T20:50:19.464Z,84.70
2018-12-26T20:52:47.436Z,82.70
2018-12-26T20:55:15.421Z,90.87
2018-12-26T20:57:43.353Z,89.25
2018-12-26T21:00:11.324Z,89.03
2018-12-26T21:02:39.319Z,91.22
2018-12-26T21:05:07.910Z,88.95
2018-12-26T21:10:17.956Z,80.90
2018-12-26T21:12:45.942Z,78.90
2018-12-26T21:15:13.876Z,81.82
2018-12-26T21:17:41.865Z,79.92
2018-12-26T21:20:09.854Z,77.12
2018-12-26T21:22:37.992Z,90.60
2018-12-26T21:25:06.715Z,84.85
2018-12-26T21:27:34.655Z,86.00
2018-12-26T21:30:02.757Z,82.02
2018-12-26T21:32:30.799Z,87.95
2018-12-26T21:34:58.805Z,84.58
2018-12-26T21:37:26.763Z,84.90
2018-12-26T21:39:54.845Z,84.25
2018-12-26T21:42:22.776Z,78.20
2018-12-26T21:47:32.862Z,77.15
2018-12-26T21:50:00.865Z,77.95
2018-12-26T21:52:28.891Z,73.45
2018-12-26T21:54:56.878Z,77.10
2018-12-26T21:57:24.824Z,78.95
2018-12-26T21:59:52.802Z,77.55
2018-12-26T22:02:22.610Z,77.27
2018-12-26T22:04:50.488Z,79.65
2018-12-26T22:07:18.458Z,79.58
2018-12-26T22:10:05.421Z,84.58
2018-12-26T22:12:33.471Z,81.95
2018-12-26T22:15:01.408Z,79.65
2018-12-26T22:17:29.390Z,88.85
2018-12-26T22:19:57.332Z,79.97
2018-12-26T22:22:25.313Z,84.37
2018-12-26T22:24:53.322Z,82.65
2018-12-26T22:27:21.249Z,83.65
2018-12-26T22:29:49.252Z,83.80
2018-12-26T22:32:17.171Z,84.40
2018-12-26T22:34:45.173Z,76.55
2018-12-26T22:37:13.216Z,76.02
2018-12-26T22:39:41.505Z,74.75
2018-12-26T22:42:09.557Z,80.30
2018-12-26T22:44:37.523Z,83.67
2018-12-26T22:49:48.857Z,79.72
2018-12-26T22:52:16.827Z,77.32
2018-12-26T22:54:44.761Z,81.30
2018-12-26T22:57:12.924Z,79.17
2018-12-26T22:59:40.934Z,85.50
2018-12-26T23:02:08.914Z,84.65
2018-12-26T23:04:36.957Z,78.67
2018-12-26T23:07:04.959Z,79.70
2018-12-26T23:09:32.977Z,78.17
2018-12-26T23:12:00.980Z,80.40
2018-12-26T23:14:29.802Z,79.17
2018-12-26T23:16:58.868Z,83.15
2018-12-26T23:19:26.839Z,88.35
2018-12-26T23:21:54.880Z,82.78
2018-12-26T23:24:22.883Z,88.47
2018-12-26T23:26:50.825Z,87.70
2018-12-26T23:29:18.818Z,84.83
2018-12-26T23:31:46.772Z,127.90
2018-12-26T23:34:14.732Z,81.10
2018-12-26T23:36:42.721Z,90.80
2018-12-26T23:39:10.779Z,78.10
2018-12-26T23:41:38.769Z,72.40
2018-12-26T23:44:06.719Z,74.60
2018-12-26T23:46:34.808Z,75.47
2018-12-26T23:49:02.822Z,80.03
2018-12-26T23:51:30.759Z,78.02
2018-12-26T23:53:58.764Z,76.77
2018-12-26T23:56:26.660Z,75.67
2018-12-26T23:58:54.672Z,78.47
